Time;durP1;ratioP1;P1;durP2;ratioP2;P2;SDS_P1;SDS_P2;PMS_P1;PMS_P2;Temp;Humidity;BMP_temperature;BMP_pressure;BME280_temperature;BME280_humidity;BME280_pressure;Samples;Min_cycle;Max_cycle;Signal;HPM_P1;HPM_P2
2020/12/21 00:01:04;;;;;;;4.10;1.30;;;9.60;99.90;;;;;;6097303;23;21116;-77
2020/12/21 00:03:30;;;;;;;4.80;1.30;;;9.50;99.90;;;;;;6097620;23;20154;-77
2020/12/21 00:05:55;;;;;;;5.00;1.73;;;9.50;99.90;;;;;;6097400;23;20170;-78
2020/12/21 00:08:21;;;;;;;6.97;1.60;;;9.40;99.90;;;;;;6122656;23;21053;-77
2020/12/21 00:10:50;;;;;;;4.27;1.60;;;9.40;99.90;;;;;;6097247;23;20147;-77
2020/12/21 00:13:17;;;;;;;8.82;2.70;;;9.40;99.90;;;;;;6097265;23;20594;-78
2020/12/21 00:15:43;;;;;;;5.22;1.38;;;9.30;99.90;;;;;;6072902;23;20732;-77
2020/12/21 00:18:09;;;;;;;4.57;1.45;;;9.30;99.90;;;;;;6072662;23;20539;-77
2020/12/21 00:20:35;;;;;;;4.23;1.33;;;9.30;99.90;;;;;;6096768;23;20238;-77
2020/12/21 00:23:00;;;;;;;3.93;1.50;;;9.20;99.90;;;;;;6073429;23;20625;-77
2020/12/21 00:25:27;;;;;;;4.18;1.45;;;9.20;99.90;;;;;;6097466;23;20463;-77
2020/12/21 00:27:53;;;;;;;4.30;1.20;;;9.20;99.90;;;;;;6122428;23;20206;-77
2020/12/21 00:30:19;;;;;;;4.33;1.10;;;9.20;99.90;;;;;;6096886;23;20155;-77
2020/12/21 00:32:45;;;;;;;4.90;1.47;;;9.10;99.90;;;;;;6097296;23;20578;-77
2020/12/21 00:35:11;;;;;;;6.20;1.20;;;9.10;99.90;;;;;;6073259;23;20542;-78
2020/12/21 00:37:36;;;;;;;3.47;1.10;;;9.10;99.90;;;;;;6096455;23;20170;-77
2020/12/21 00:40:03;;;;;;;3.50;1.20;;;9.10;99.90;;;;;;6097278;23;20147;-77
2020/12/21 00:42:28;;;;;;;2.85;1.00;;;9.00;99.90;;;;;;6072697;23;20550;-77
2020/12/21 00:44:54;;;;;;;4.53;1.27;;;9.00;99.90;;;;;;6073332;23;20151;-78
2020/12/21 00:47:20;;;;;;;4.43;1.50;;;9.00;99.90;;;;;;6096340;23;20637;-77
2020/12/21 00:49:46;;;;;;;7.67;1.40;;;9.00;99.90;;;;;;6073028;23;20154;-77
2020/12/21 00:52:12;;;;;;;3.30;1.20;;;9.00;99.90;;;;;;6096758;23;20557;-77
2020/12/21 00:54:37;;;;;;;7.73;1.60;;;9.00;99.90;;;;;;6123091;23;20143;-77
2020/12/21 00:57:03;;;;;;;4.20;1.47;;;8.90;99.90;;;;;;6122564;23;20590;-77
2020/12/21 00:59:29;;;;;;;6.83;1.30;;;8.90;99.90;;;;;;6096420;23;20150;-77
2020/12/21 01:01:55;;;;;;;5.23;1.60;;;9.00;99.90;;;;;;6073060;23;20154;-77
2020/12/21 01:04:21;;;;;;;4.23;1.60;;;8.90;99.90;;;;;;6097392;23;20158;-77
2020/12/21 01:06:53;;;;;;;3.60;1.30;;;8.90;99.90;;;;;;6122697;23;20630;-77
2020/12/21 01:09:19;;;;;;;4.00;1.75;;;9.00;99.90;;;;;;6072511;23;20182;-77
2020/12/21 01:11:44;;;;;;;3.47;1.43;;;9.00;99.90;;;;;;6096538;23;20147;-77
2020/12/21 01:14:10;;;;;;;2.70;0.90;;;9.00;99.90;;;;;;6073470;23;20546;-77
2020/12/21 01:16:36;;;;;;;5.30;1.40;;;9.00;99.90;;;;;;6124046;23;20182;-77
2020/12/21 01:19:02;;;;;;;5.57;1.10;;;9.00;99.90;;;;;;6098372;23;20147;-77
2020/12/21 01:21:29;;;;;;;4.10;1.50;;;9.00;99.90;;;;;;6099474;23;20147;-77
2020/12/21 01:23:56;;;;;;;3.92;1.10;;;9.00;99.90;;;;;;6100068;23;20157;-77
2020/12/21 01:26:22;;;;;;;3.78;0.90;;;9.00;99.90;;;;;;6098890;23;20167;-77
2020/12/21 01:28:48;;;;;;;2.67;1.15;;;9.00;99.90;;;;;;6097266;23;20142;-77
2020/12/21 01:31:15;;;;;;;4.70;0.87;;;9.00;99.90;;;;;;6122310;23;20750;-77
2020/12/21 01:33:41;;;;;;;4.50;1.00;;;9.00;99.90;;;;;;6096882;23;20641;-77
2020/12/21 01:36:07;;;;;;;3.65;1.02;;;9.00;99.90;;;;;;6122976;23;20167;-77
2020/12/21 01:38:33;;;;;;;3.47;0.97;;;9.00;99.90;;;;;;6122664;23;20154;-77
2020/12/21 01:40:59;;;;;;;4.60;1.20;;;8.90;99.90;;;;;;6072419;23;20550;-77
2020/12/21 01:43:25;;;;;;;2.30;1.13;;;8.90;99.90;;;;;;6096284;23;20598;-77
2020/12/21 01:45:51;;;;;;;5.43;1.13;;;8.90;99.90;;;;;;6096948;23;20746;-77
2020/12/21 01:48:17;;;;;;;5.97;2.43;;;8.90;99.90;;;;;;6122345;23;20523;-77
2020/12/21 01:50:43;;;;;;;2.73;1.07;;;8.90;99.90;;;;;;6072518;23;20586;-77
2020/12/21 01:53:10;;;;;;;3.22;0.90;;;8.90;99.90;;;;;;6122418;23;20567;-77
2020/12/21 01:55:40;;;;;;;3.33;1.63;;;8.90;99.90;;;;;;6072418;23;20152;-77
2020/12/21 01:58:06;;;;;;;3.30;1.08;;;8.90;99.90;;;;;;6096232;23;20154;-77
2020/12/21 02:00:34;;;;;;;4.35;1.70;;;8.90;99.90;;;;;;6096542;23;20198;-77
2020/12/21 02:03:00;;;;;;;5.00;1.00;;;8.80;99.90;;;;;;6073031;23;20163;-78
2020/12/21 02:05:27;;;;;;;8.27;1.23;;;8.90;99.90;;;;;;6097093;23;20179;-78
2020/12/21 02:07:54;;;;;;;7.55;1.65;;;8.90;99.90;;;;;;6121847;23;20158;-78
2020/12/21 02:10:21;;;;;;;3.22;0.82;;;8.90;99.90;;;;;;6096182;23;20151;-77
2020/12/21 02:12:47;;;;;;;2.25;0.80;;;8.90;99.90;;;;;;6096607;23;20664;-77
2020/12/21 02:15:13;;;;;;;3.70;0.93;;;8.90;99.90;;;;;;6072700;23;20151;-77
2020/12/21 02:17:39;;;;;;;2.72;1.00;;;8.90;99.90;;;;;;6072377;23;20574;-77
2020/12/21 02:20:05;;;;;;;4.30;1.13;;;8.90;99.90;;;;;;6098533;23;20150;-77
2020/12/21 02:22:31;;;;;;;3.20;0.83;;;8.90;99.90;;;;;;6098507;23;20159;-78
2020/12/21 02:24:56;;;;;;;5.33;1.30;;;8.90;99.90;;;;;;6124477;23;20519;-78
2020/12/21 02:27:22;;;;;;;3.20;0.97;;;8.90;99.90;;;;;;6073515;23;20664;-77
2020/12/21 02:29:48;;;;;;;4.30;1.07;;;8.90;99.90;;;;;;6074600;23;20621;-77
2020/12/21 02:32:14;;;;;;;2.20;1.13;;;8.90;99.90;;;;;;6050114;23;20586;-78
2020/12/21 02:34:39;;;;;;;3.20;1.17;;;8.90;99.90;;;;;;6098150;23;20632;-78
2020/12/21 02:37:05;;;;;;;3.80;0.90;;;8.90;99.90;;;;;;6098501;23;20167;-77
2020/12/21 02:39:31;;;;;;;2.97;0.83;;;8.90;99.90;;;;;;6123111;23;20523;-78
2020/12/21 02:41:57;;;;;;;3.63;1.10;;;8.90;99.90;;;;;;6097959;23;20176;-78
2020/12/21 02:44:22;;;;;;;3.93;1.20;;;9.00;99.90;;;;;;6098105;23;20179;-78
2020/12/21 02:46:48;;;;;;;4.00;0.87;;;9.00;99.90;;;;;;6098214;23;20178;-78
2020/12/21 02:49:14;;;;;;;2.60;1.17;;;9.00;99.90;;;;;;6123472;23;20151;-77
2020/12/21 02:51:40;;;;;;;5.63;0.90;;;9.00;99.90;;;;;;6124212;23;20155;-77
2020/12/21 02:54:06;;;;;;;7.33;1.47;;;9.00;99.90;;;;;;6074385;23;20674;-77
2020/12/21 02:56:31;;;;;;;2.93;1.00;;;9.00;99.90;;;;;;6123906;23;20245;-77
2020/12/21 02:58:58;;;;;;;4.50;1.03;;;9.00;99.90;;;;;;6123270;23;20854;-77
2020/12/21 03:01:23;;;;;;;14.43;2.00;;;9.00;99.90;;;;;;6123632;23;20158;-77
2020/12/21 03:03:49;;;;;;;3.90;1.13;;;9.00;99.90;;;;;;6098260;23;20178;-77
2020/12/21 03:06:15;;;;;;;3.45;1.20;;;9.00;99.90;;;;;;6122153;23;20567;-77
2020/12/21 03:08:41;;;;;;;4.00;1.03;;;8.90;99.90;;;;;;6097359;23;20213;-78
2020/12/21 03:11:10;;;;;;;4.40;1.10;;;8.90;99.90;;;;;;6123730;23;20538;-77
2020/12/21 03:13:37;;;;;;;3.33;1.00;;;8.90;99.90;;;;;;6124076;23;20226;-77
2020/12/21 03:16:04;;;;;;;2.80;1.45;;;8.90;99.90;;;;;;6097838;23;20186;-77
2020/12/21 03:18:30;;;;;;;5.55;1.50;;;8.90;99.90;;;;;;6097259;23;20142;-78
2020/12/21 03:20:56;;;;;;;6.55;1.85;;;8.90;99.90;;;;;;6097683;23;20159;-77
2020/12/21 03:23:22;;;;;;;4.57;1.90;;;8.90;99.90;;;;;;6098571;23;20151;-77
2020/12/21 03:25:48;;;;;;;7.47;2.83;;;8.90;99.90;;;;;;6098239;23;20179;-77
2020/12/21 03:28:14;;;;;;;8.30;3.27;;;8.90;99.90;;;;;;6097990;23;20546;-77
2020/12/21 03:30:40;;;;;;;4.13;2.47;;;8.90;99.90;;;;;;6074429;23;20542;-77
2020/12/21 03:33:06;;;;;;;5.80;2.97;;;8.90;99.90;;;;;;6098378;23;20187;-78
2020/12/21 03:35:32;;;;;;;3.50;2.10;;;9.00;99.90;;;;;;6123963;23;20519;-77
2020/12/21 03:37:58;;;;;;;4.77;3.10;;;9.00;99.90;;;;;;6123334;23;20601;-77
2020/12/21 03:40:24;;;;;;;5.97;1.85;;;8.90;99.90;;;;;;6123220;23;20515;-77
2020/12/21 03:42:50;;;;;;;4.80;2.47;;;9.00;99.90;;;;;;6073385;23;20660;-77
2020/12/21 03:45:16;;;;;;;2.90;1.40;;;9.00;99.90;;;;;;6099158;23;20547;-77
2020/12/21 03:47:42;;;;;;;3.67;1.88;;;9.00;99.90;;;;;;6097650;23;20555;-77
2020/12/21 03:50:20;;;;;;;4.82;1.92;;;9.00;99.90;;;;;;6123329;23;20558;-77
2020/12/21 03:52:46;;;;;;;3.67;1.40;;;9.00;99.90;;;;;;6097179;23;20267;-77
2020/12/21 03:55:11;;;;;;;5.43;1.37;;;9.00;99.90;;;;;;6123415;23;20526;-78
2020/12/21 03:57:37;;;;;;;5.13;1.60;;;9.00;99.90;;;;;;6096585;23;20633;-78
2020/12/21 04:00:06;;;;;;;6.13;1.70;;;9.00;99.90;;;;;;6073469;23;20531;-78
2020/12/21 04:02:38;;;;;;;4.13;1.50;;;9.00;99.90;;;;;;6098778;23;20459;-79
2020/12/21 04:05:04;;;;;;;6.50;1.40;;;9.00;99.90;;;;;;6097015;23;20158;-78
2020/12/21 04:07:30;;;;;;;3.45;1.27;;;9.00;99.90;;;;;;6072511;23;20546;-78
2020/12/21 04:09:56;;;;;;;3.47;1.50;;;9.00;99.90;;;;;;6073016;23;20198;-78
2020/12/21 04:12:22;;;;;;;1.67;1.00;;;9.00;99.90;;;;;;6096489;23;20191;-78
2020/12/21 04:14:51;;;;;;;2.55;1.17;;;8.90;99.90;;;;;;6097511;23;20286;-78
2020/12/21 04:17:28;;;;;;;3.43;1.60;;;9.00;99.90;;;;;;6077040;23;20414;-78
2020/12/21 04:19:56;;;;;;;5.20;1.40;;;9.00;99.90;;;;;;6152313;23;20177;-77
2020/12/21 04:22:23;;;;;;;6.07;1.52;;;8.90;99.90;;;;;;6152549;23;20150;-77
2020/12/21 04:24:49;;;;;;;4.13;1.48;;;8.90;99.90;;;;;;6126851;23;20150;-77
2020/12/21 04:27:15;;;;;;;6.18;1.67;;;8.90;99.90;;;;;;6152115;23;20269;-77
2020/12/21 04:29:41;;;;;;;3.83;1.13;;;8.90;99.90;;;;;;6102143;23;20542;-77
2020/12/21 04:32:07;;;;;;;5.30;1.53;;;8.80;99.90;;;;;;6152248;23;20185;-77
2020/12/21 04:34:33;;;;;;;10.10;1.57;;;8.80;99.90;;;;;;6152168;23;21088;-77
2020/12/21 04:37:04;;;;;;;2.92;1.15;;;8.80;99.90;;;;;;6127141;23;20146;-76
2020/12/21 04:39:33;;;;;;;3.25;1.23;;;8.80;99.90;;;;;;6151872;23;20127;-76
2020/12/21 04:42:00;;;;;;;4.33;2.83;;;8.80;99.90;;;;;;6152224;23;20588;-77
2020/12/21 04:44:29;;;;;;;3.58;1.20;;;8.80;99.90;;;;;;6128155;23;20526;-77
2020/12/21 04:46:56;;;;;;;4.60;1.67;;;8.70;99.90;;;;;;6155844;23;20484;-77
2020/12/21 04:49:23;;;;;;;4.53;1.90;;;8.70;99.90;;;;;;6125937;23;20615;-77
2020/12/21 04:51:54;;;;;;;5.35;1.90;;;8.70;99.90;;;;;;6152143;23;20158;-77
2020/12/21 04:54:23;;;;;;;5.93;1.50;;;8.60;99.90;;;;;;6152324;23;20153;-77
2020/12/21 04:56:49;;;;;;;4.53;1.45;;;8.60;99.90;;;;;;6152542;23;20152;-77
2020/12/21 04:59:19;;;;;;;6.57;1.67;;;8.70;99.90;;;;;;6151776;23;20234;-77
2020/12/21 05:01:53;;;;;;;5.00;1.60;;;8.70;99.90;;;;;;6127354;23;20615;-77
2020/12/21 05:04:27;;;;;;;4.28;1.48;;;8.60;99.90;;;;;;6128625;23;20158;-76
2020/12/21 05:06:54;;;;;;;3.40;1.37;;;8.70;99.90;;;;;;6152387;23;20507;-77
2020/12/21 05:09:24;;;;;;;5.40;1.80;;;8.70;99.90;;;;;;6151632;23;20170;-78
2020/12/21 05:12:07;;;;;;;3.17;1.20;;;8.60;99.90;;;;;;6126594;23;20147;-78
2020/12/21 05:14:37;;;;;;;6.57;2.17;;;8.70;99.90;;;;;;6158575;23;20440;-77
2020/12/21 05:17:16;;;;;;;5.43;2.03;;;8.60;99.90;;;;;;6152124;23;20137;-77
2020/12/21 05:19:48;;;;;;;6.97;1.85;;;8.60;99.90;;;;;;6152928;23;20135;-77
2020/12/21 05:22:23;;;;;;;7.45;2.08;;;8.60;99.90;;;;;;6131767;23;20486;-77
2020/12/21 05:25:06;;;;;;;7.13;2.00;;;8.60;99.90;;;;;;6126580;23;20192;-77
2020/12/21 05:27:53;;;;;;;5.00;1.85;;;8.70;99.90;;;;;;6157459;23;20170;-77
2020/12/21 05:30:24;;;;;;;6.03;2.50;;;8.60;99.90;;;;;;6154048;23;20137;-77
2020/12/21 05:33:06;;;;;;;3.70;1.40;;;8.60;99.90;;;;;;6129810;23;20491;-76
2020/12/21 05:35:47;;;;;;;4.55;1.88;;;8.60;99.90;;;;;;6156902;23;20194;-76
2020/12/21 05:38:54;;;;;;;;;;;;;;;;;;;;;
2020/12/21 05:41:42;;;;;;;4.60;2.45;;;8.70;99.90;;;;;;6105910;23;20150;-77
2020/12/21 05:44:08;;;;;;;3.63;1.73;;;8.70;99.90;;;;;;6155966;23;20150;-77
2020/12/21 05:46:34;;;;;;;6.17;2.33;;;8.60;99.90;;;;;;6157301;23;20147;-77
2020/12/21 05:49:00;;;;;;;3.63;1.77;;;8.60;99.90;;;;;;6110386;23;20648;-77
2020/12/21 05:51:31;;;;;;;5.13;2.03;;;8.60;99.90;;;;;;6162421;23;20533;-77
2020/12/21 05:54:06;;;;;;;5.40;2.22;;;8.60;99.90;;;;;;6131548;23;20163;-77
2020/12/21 05:56:34;;;;;;;3.65;1.52;;;8.60;99.90;;;;;;6128674;23;20130;-77
2020/12/21 05:59:00;;;;;;;4.13;1.70;;;8.60;99.90;;;;;;6154560;23;20482;-77
2020/12/21 06:01:27;;;;;;;6.78;1.90;;;8.60;99.90;;;;;;6111565;23;20154;-77
2020/12/21 06:04:01;;;;;;;5.32;2.22;;;8.60;99.90;;;;;;6136672;23;20182;-77
2020/12/21 06:06:30;;;;;;;6.03;1.90;;;8.60;99.90;;;;;;6159194;23;20170;-77
2020/12/21 06:08:57;;;;;;;5.30;1.65;;;8.60;99.90;;;;;;6127125;23;20167;-77
2020/12/21 06:11:28;;;;;;;4.78;1.85;;;8.60;99.90;;;;;;6153615;23;20900;-77
2020/12/21 06:14:12;;;;;;;4.05;2.00;;;8.50;99.90;;;;;;6153701;23;20249;-76
2020/12/21 06:16:39;;;;;;;3.20;2.13;;;8.50;99.90;;;;;;6103981;23;20142;-77
2020/12/21 06:19:07;;;;;;;5.47;1.60;;;8.50;99.90;;;;;;6102502;23;20182;-76
2020/12/21 06:21:35;;;;;;;4.40;1.77;;;8.50;99.90;;;;;;6127296;23;20147;-76
2020/12/21 06:24:01;;;;;;;7.40;2.15;;;8.50;99.90;;;;;;6127872;23;20178;-76
2020/12/21 06:26:35;;;;;;;8.02;2.33;;;8.50;99.90;;;;;;6153846;23;20158;-76
2020/12/21 06:29:09;;;;;;;6.32;2.80;;;8.60;99.90;;;;;;6126838;23;20169;-76
2020/12/21 06:31:47;;;;;;;7.22;2.00;;;8.60;99.90;;;;;;6153545;23;20270;-77
2020/12/21 06:34:18;;;;;;;5.18;1.92;;;8.60;99.90;;;;;;6153805;23;20166;-77
2020/12/21 06:36:48;;;;;;;5.43;1.90;;;8.60;99.90;;;;;;6157920;23;20141;-77
2020/12/21 06:39:24;;;;;;;9.68;2.80;;;8.60;99.90;;;;;;6153232;23;20238;-76
2020/12/21 06:42:08;;;;;;;10.25;2.40;;;8.70;99.90;;;;;;6126552;23;20256;-76
2020/12/21 06:44:37;;;;;;;4.43;1.95;;;8.70;99.90;;;;;;6126460;23;20205;-76
2020/12/21 06:47:03;;;;;;;5.70;2.10;;;8.70;99.90;;;;;;6127302;23;20158;-77
2020/12/21 06:49:29;;;;;;;6.47;2.38;;;8.80;99.90;;;;;;6126688;23;20213;-77
2020/12/21 06:51:54;;;;;;;4.70;2.03;;;8.80;99.90;;;;;;6102390;23;20204;-76
2020/12/21 06:54:20;;;;;;;7.77;1.80;;;8.80;99.90;;;;;;6127374;23;20143;-77
2020/12/21 06:56:49;;;;;;;5.83;2.40;;;8.80;99.90;;;;;;6127267;23;20134;-77
2020/12/21 06:59:16;;;;;;;7.10;1.85;;;8.90;99.90;;;;;;6152659;23;20557;-77
2020/12/21 07:01:44;;;;;;;3.83;1.63;;;8.90;99.90;;;;;;6154100;23;20146;-77
2020/12/21 07:04:13;;;;;;;7.28;1.95;;;8.90;99.90;;;;;;6126414;23;20512;-77
2020/12/21 07:06:40;;;;;;;7.70;2.08;;;8.90;99.90;;;;;;6103357;23;20226;-78
2020/12/21 07:09:06;;;;;;;3.78;1.75;;;8.90;99.90;;;;;;6152794;23;20173;-78
2020/12/21 07:11:33;;;;;;;6.05;1.95;;;8.90;99.90;;;;;;6153126;23;20162;-78
2020/12/21 07:13:59;;;;;;;5.03;2.33;;;9.00;99.90;;;;;;6158229;23;20515;-78
2020/12/21 07:16:26;;;;;;;7.38;1.73;;;9.00;99.90;;;;;;6128571;23;20687;-77
2020/12/21 07:18:52;;;;;;;12.70;2.75;;;9.00;99.90;;;;;;6126541;23;20286;-78
2020/12/21 07:21:18;;;;;;;5.33;2.27;;;9.00;99.90;;;;;;6153319;23;20229;-77
2020/12/21 07:23:45;;;;;;;6.10;2.30;;;9.00;99.90;;;;;;6127283;23;20523;-80
2020/12/21 07:26:15;;;;;;;3.63;1.30;;;9.10;99.90;;;;;;6153655;23;20515;-79
2020/12/21 07:28:47;;;;;;;13.82;2.47;;;9.10;99.90;;;;;;6127380;23;20217;-77
2020/12/21 07:31:18;;;;;;;5.47;2.22;;;9.10;99.90;;;;;;6154311;23;20174;-77
2020/12/21 07:33:59;;;;;;;4.18;1.80;;;9.10;99.90;;;;;;6127441;23;20489;-77
2020/12/21 07:36:30;;;;;;;3.50;1.70;;;9.10;99.90;;;;;;6151357;23;20137;-78
2020/12/21 07:39:12;;;;;;;6.30;2.42;;;9.20;99.90;;;;;;6152247;23;20162;-77
2020/12/21 07:41:43;;;;;;;5.47;1.80;;;9.20;99.90;;;;;;6125657;23;20137;-76
2020/12/21 07:44:26;;;;;;;5.18;1.95;;;9.20;99.90;;;;;;6102551;23;20131;-76
2020/12/21 07:47:03;;;;;;;5.72;2.05;;;9.20;99.90;;;;;;6125721;23;20189;-77
2020/12/21 07:49:36;;;;;;;4.70;1.90;;;9.20;99.90;;;;;;6125544;23;20230;-78
2020/12/21 07:52:04;;;;;;;6.50;2.03;;;9.20;99.90;;;;;;6133841;23;20142;-77
2020/12/21 07:54:37;;;;;;;3.58;1.52;;;9.30;99.90;;;;;;6127892;23;20151;-77
2020/12/21 07:57:09;;;;;;;5.45;1.52;;;9.30;99.90;;;;;;6153933;23;20492;-77
2020/12/21 07:59:35;;;;;;;3.47;1.60;;;9.30;99.90;;;;;;6127797;23;20131;-76
2020/12/21 08:02:06;;;;;;;13.63;2.72;;;9.30;99.90;;;;;;6083059;23;20154;-76
2020/12/21 08:04:33;;;;;;;5.45;2.10;;;9.30;99.90;;;;;;6158725;23;20173;-77
2020/12/21 08:07:12;;;;;;;6.80;1.90;;;9.40;99.90;;;;;;6106714;23;20154;-76
2020/12/21 08:09:39;;;;;;;2.63;1.60;;;9.40;99.90;;;;;;6132178;23;20160;-76
2020/12/21 08:12:12;;;;;;;6.82;1.75;;;9.40;99.90;;;;;;6157571;23;20264;-76
2020/12/21 08:14:39;;;;;;;3.58;1.40;;;9.50;99.90;;;;;;6157935;23;20171;-77
2020/12/21 08:17:12;;;;;;;6.00;1.70;;;9.50;99.90;;;;;;6103983;23;20172;-77
2020/12/21 08:19:52;;;;;;;3.55;1.75;;;9.50;99.90;;;;;;6153487;23;20163;-75
2020/12/21 08:22:19;;;;;;;3.40;1.80;;;9.60;99.90;;;;;;6126865;23;20153;-75
2020/12/21 08:24:45;;;;;;;10.00;2.97;;;9.60;99.90;;;;;;6127345;23;20213;-76
2020/12/21 08:27:19;;;;;;;3.95;1.55;;;9.60;99.90;;;;;;6153736;23;20308;-75
2020/12/21 08:29:44;;;;;;;3.80;1.15;;;9.60;99.90;;;;;;6159806;23;20236;-75
2020/12/21 08:32:10;;;;;;;5.30;2.10;;;9.70;99.90;;;;;;6153311;23;20178;-75
2020/12/21 08:34:36;;;;;;;6.00;2.10;;;9.70;99.90;;;;;;6153583;23;20146;-77
2020/12/21 08:37:03;;;;;;;4.65;1.33;;;9.70;99.90;;;;;;6079304;23;20142;-77
2020/12/21 08:39:28;;;;;;;4.90;1.37;;;9.70;99.90;;;;;;6127041;23;20229;-77
2020/12/21 08:42:00;;;;;;;6.50;1.40;;;9.70;99.90;;;;;;6152662;23;20146;-77
2020/12/21 08:44:28;;;;;;;5.05;1.67;;;9.80;99.90;;;;;;6127269;23;20558;-77
2020/12/21 08:46:59;;;;;;;4.20;1.40;;;9.80;99.90;;;;;;6152696;23;20162;-76
2020/12/21 08:49:27;;;;;;;2.17;1.00;;;9.90;99.90;;;;;;6152635;23;20471;-77
2020/12/21 08:51:59;;;;;;;6.38;1.52;;;9.90;99.90;;;;;;6125460;23;20149;-77
2020/12/21 08:54:25;;;;;;;5.95;1.88;;;9.90;99.90;;;;;;6101492;23;20139;-77
2020/12/21 08:56:57;;;;;;;7.43;2.30;;;10.00;99.90;;;;;;6152283;23;20153;-76
2020/12/21 08:59:23;;;;;;;5.43;1.73;;;10.00;99.90;;;;;;6126258;23;20137;-78
2020/12/21 09:01:49;;;;;;;6.60;1.92;;;10.00;99.90;;;;;;6126321;23;20149;-78
2020/12/21 09:04:15;;;;;;;5.05;1.52;;;10.00;99.90;;;;;;6126599;23;20150;-78
2020/12/21 09:06:41;;;;;;;5.97;1.75;;;10.00;99.90;;;;;;6155595;23;20174;-78
2020/12/21 09:09:09;;;;;;;7.43;2.00;;;10.10;99.90;;;;;;6153620;23;20177;-77
2020/12/21 09:11:35;;;;;;;4.75;1.90;;;10.10;99.90;;;;;;6126605;23;20142;-78
2020/12/21 09:14:01;;;;;;;7.43;2.30;;;10.10;99.90;;;;;;6152624;23;20188;-78
2020/12/21 09:16:29;;;;;;;5.72;1.83;;;10.10;99.90;;;;;;6152661;23;20193;-77
2020/12/21 09:18:57;;;;;;;3.97;1.70;;;10.10;99.90;;;;;;6125593;23;20645;-77
2020/12/21 09:21:24;;;;;;;7.30;2.03;;;10.10;99.90;;;;;;6125592;23;20229;-77
2020/12/21 09:23:53;;;;;;;3.50;1.25;;;10.20;99.90;;;;;;6152130;23;20184;-76
2020/12/21 09:26:20;;;;;;;4.72;1.27;;;10.20;99.90;;;;;;6152138;23;20341;-76
2020/12/21 09:28:48;;;;;;;4.75;1.40;;;10.20;99.90;;;;;;6151531;23;20264;-77
2020/12/21 09:31:14;;;;;;;6.90;1.83;;;10.20;99.90;;;;;;6151841;23;20147;-77
2020/12/21 09:33:41;;;;;;;3.60;1.48;;;10.20;99.90;;;;;;6152397;23;20177;-77
2020/12/21 09:36:11;;;;;;;3.00;1.25;;;10.30;99.90;;;;;;6152107;23;20649;-76
2020/12/21 09:38:37;;;;;;;4.57;1.35;;;10.30;99.90;;;;;;6151804;23;20170;-76
2020/12/21 09:41:04;;;;;;;5.35;1.55;;;10.40;99.90;;;;;;6126160;23;20585;-77
2020/12/21 09:43:31;;;;;;;3.03;1.13;;;10.40;99.90;;;;;;6156841;23;20151;-76
2020/12/21 09:45:57;;;;;;;4.68;1.50;;;10.40;99.90;;;;;;6152218;23;20165;-77
2020/12/21 09:48:23;;;;;;;4.50;1.73;;;10.40;99.90;;;;;;6125640;23;20170;-76
2020/12/21 09:50:49;;;;;;;11.80;1.90;;;10.50;99.90;;;;;;6151285;23;20541;-76
2020/12/21 09:53:16;;;;;;;3.57;1.40;;;10.50;99.90;;;;;;6125939;23;20644;-76
2020/12/21 09:55:43;;;;;;;5.18;1.80;;;10.60;99.90;;;;;;6151781;23;20123;-77
2020/12/21 09:58:09;;;;;;;5.13;1.40;;;10.60;99.90;;;;;;6151706;23;20181;-76
2020/12/21 10:00:35;;;;;;;5.60;1.75;;;10.60;99.90;;;;;;6126611;23;20154;-76
2020/12/21 10:03:06;;;;;;;5.75;1.33;;;10.70;99.90;;;;;;6125679;23;20135;-76
2020/12/21 10:05:31;;;;;;;3.53;1.57;;;10.70;99.90;;;;;;6152652;23;20155;-76
2020/12/21 10:07:57;;;;;;;5.67;1.67;;;10.80;99.90;;;;;;6152908;23;20678;-76
2020/12/21 10:10:23;;;;;;;4.25;1.42;;;10.80;99.90;;;;;;6151705;23;20521;-76
2020/12/21 10:12:50;;;;;;;6.27;1.50;;;10.90;99.90;;;;;;6151171;23;20181;-76
2020/12/21 10:15:16;;;;;;;4.20;1.38;;;10.90;99.90;;;;;;6156833;23;20177;-77
2020/12/21 10:17:43;;;;;;;3.50;1.70;;;10.90;99.90;;;;;;6127763;23;20254;-76
2020/12/21 10:20:09;;;;;;;3.97;1.60;;;11.00;99.90;;;;;;6120515;23;20148;-75
2020/12/21 10:22:34;;;;;;;3.93;1.77;;;11.00;99.90;;;;;;6121384;23;20159;-75
2020/12/21 10:25:00;;;;;;;4.00;1.83;;;11.00;99.90;;;;;;6122058;23;20157;-78
2020/12/21 10:27:28;;;;;;;3.20;1.53;;;11.00;99.90;;;;;;6119810;23;20535;-77
2020/12/21 10:29:54;;;;;;;4.68;1.77;;;11.00;99.90;;;;;;6122139;23;20178;-77
2020/12/21 10:32:19;;;;;;;3.13;1.60;;;11.10;99.90;;;;;;6121694;23;20179;-78
2020/12/21 10:34:45;;;;;;;4.27;1.63;;;11.00;99.90;;;;;;6120470;23;20155;-78
2020/12/21 10:37:11;;;;;;;3.70;1.90;;;11.10;99.90;;;;;;6120482;23;20624;-77
2020/12/21 10:39:37;;;;;;;5.27;1.57;;;11.10;99.90;;;;;;6121999;23;20618;-78
2020/12/21 10:42:06;;;;;;;5.20;2.20;;;11.10;99.90;;;;;;6127209;23;20194;-78
2020/12/21 10:44:32;;;;;;;4.75;1.85;;;11.10;99.90;;;;;;6123495;23;20546;-78
2020/12/21 10:46:59;;;;;;;10.13;2.63;;;11.10;99.90;;;;;;6123796;23;20230;-78
2020/12/21 10:49:26;;;;;;;6.38;2.40;;;11.10;99.90;;;;;;6121417;23;20230;-77
2020/12/21 10:51:52;;;;;;;5.35;2.60;;;11.10;99.90;;;;;;6097193;23;20485;-77
2020/12/21 10:54:17;;;;;;;4.67;1.70;;;11.10;99.90;;;;;;6124084;23;20151;-78
2020/12/21 10:56:43;;;;;;;4.93;2.00;;;11.10;99.90;;;;;;6124263;23;21045;-78
2020/12/21 10:59:09;;;;;;;4.40;2.30;;;11.20;99.90;;;;;;6123094;23;20246;-78
2020/12/21 11:01:35;;;;;;;8.23;2.50;;;11.10;99.90;;;;;;6123216;23;20151;-79
2020/12/21 11:04:01;;;;;;;5.95;1.95;;;11.10;99.90;;;;;;6123573;23;20522;-78
2020/12/21 11:06:28;;;;;;;7.00;2.63;;;11.10;99.90;;;;;;6121900;23;20717;-78
2020/12/21 11:08:54;;;;;;;9.40;2.27;;;11.10;99.90;;;;;;6122705;23;20178;-78
2020/12/21 11:11:27;;;;;;;5.63;2.63;;;11.10;99.90;;;;;;6123679;23;21094;-77
2020/12/21 11:13:54;;;;;;;5.05;2.50;;;11.10;99.90;;;;;;6121971;23;20574;-78
2020/12/21 11:16:20;;;;;;;7.95;3.72;;;11.10;99.90;;;;;;6122099;23;20151;-78
2020/12/21 11:18:47;;;;;;;11.45;2.95;;;11.20;99.90;;;;;;6158839;23;20188;-78
2020/12/21 11:21:13;;;;;;;5.18;2.70;;;11.20;99.90;;;;;;6155886;23;20146;-77
2020/12/21 11:23:40;;;;;;;4.22;2.55;;;11.20;99.90;;;;;;6182581;23;20217;-78
2020/12/21 11:26:07;;;;;;;6.63;2.58;;;11.20;99.90;;;;;;6161934;23;20134;-78
2020/12/21 11:28:32;;;;;;;7.50;2.78;;;11.10;99.90;;;;;;6155737;23;20244;-77
2020/12/21 11:30:58;;;;;;;6.17;3.20;;;11.10;99.90;;;;;;6182261;23;20165;-77
2020/12/21 11:33:24;;;;;;;6.40;3.57;;;11.10;99.90;;;;;;6181959;23;20565;-76
2020/12/21 11:35:50;;;;;;;7.37;3.20;;;11.10;99.90;;;;;;6182421;23;20592;-76
2020/12/21 11:38:15;;;;;;;7.40;3.57;;;11.10;99.90;;;;;;6181674;23;20157;-77
2020/12/21 11:40:42;;;;;;;7.23;3.43;;;11.10;99.90;;;;;;6182250;23;20224;-76
2020/12/21 11:43:08;;;;;;;4.72;3.17;;;11.10;99.90;;;;;;6182073;23;20149;-76
2020/12/21 11:45:34;;;;;;;6.43;3.40;;;11.10;99.90;;;;;;6182475;23;20220;-76
2020/12/21 11:47:59;;;;;;;5.33;2.67;;;11.10;99.90;;;;;;6155052;23;20165;-76
2020/12/21 11:50:25;;;;;;;4.17;2.10;;;11.10;99.90;;;;;;6181530;23;20536;-76
2020/12/21 11:52:52;;;;;;;4.97;2.90;;;11.10;99.90;;;;;;6182178;23;20281;-76
2020/12/21 11:55:17;;;;;;;2.88;2.55;;;11.20;99.90;;;;;;6182431;23;20153;-76
2020/12/21 11:57:43;;;;;;;6.90;4.27;;;11.20;99.90;;;;;;6181656;23;20165;-76
2020/12/21 12:00:09;;;;;;;5.73;2.70;;;11.30;99.90;;;;;;6155553;23;20261;-76
2020/12/21 12:02:34;;;;;;;6.47;2.73;;;11.30;99.90;;;;;;6159702;23;20204;-77
2020/12/21 12:05:00;;;;;;;3.00;2.33;;;11.30;99.90;;;;;;6182852;23;20157;-77
2020/12/21 12:07:27;;;;;;;9.18;3.25;;;11.30;99.90;;;;;;6130458;23;20141;-77
2020/12/21 12:09:53;;;;;;;4.23;3.10;;;11.20;99.90;;;;;;6182245;23;20208;-76
2020/12/21 12:12:19;;;;;;;6.60;2.47;;;11.20;99.90;;;;;;6181873;23;20173;-77
2020/12/21 12:14:44;;;;;;;4.60;2.23;;;11.20;99.90;;;;;;6182366;23;20148;-77
2020/12/21 12:17:10;;;;;;;6.73;2.90;;;11.20;99.90;;;;;;6182273;23;20208;-77
2020/12/21 12:19:36;;;;;;;5.30;2.73;;;11.20;99.90;;;;;;6180694;23;20277;-76
2020/12/21 12:22:02;;;;;;;6.63;2.90;;;11.20;99.90;;;;;;6182004;23;20261;-76
2020/12/21 12:24:27;;;;;;;6.17;2.90;;;11.10;99.90;;;;;;6182407;23;20588;-76
2020/12/21 12:26:53;;;;;;;6.63;3.40;;;11.10;99.90;;;;;;6180990;23;20884;-76
2020/12/21 12:29:22;;;;;;;5.30;3.20;;;11.10;99.90;;;;;;6180212;23;20166;-76
2020/12/21 12:31:47;;;;;;;3.70;2.47;;;11.00;99.90;;;;;;6155762;23;20184;-75
2020/12/21 12:34:13;;;;;;;4.63;2.67;;;11.00;99.90;;;;;;6181892;23;20177;-75
2020/12/21 12:36:41;;;;;;;3.47;2.80;;;10.90;99.90;;;;;;6182138;23;20528;-75
2020/12/21 12:39:07;;;;;;;6.38;3.40;;;10.80;99.90;;;;;;6185947;23;20549;-75
2020/12/21 12:41:38;;;;;;;8.48;3.33;;;10.70;99.90;;;;;;6181994;23;20529;-75
2020/12/21 12:44:04;;;;;;;8.75;4.32;;;10.70;99.90;;;;;;6181440;23;20234;-76
2020/12/21 12:46:30;;;;;;;4.20;2.97;;;10.60;99.90;;;;;;6181699;23;20193;-75
2020/12/21 12:48:55;;;;;;;6.13;3.20;;;10.60;99.90;;;;;;6154698;23;20585;-76
2020/12/21 12:51:21;;;;;;;7.30;3.10;;;10.50;99.90;;;;;;6182206;23;20686;-75
2020/12/21 12:53:47;;;;;;;3.00;2.70;;;10.60;99.90;;;;;;6181730;23;20533;-76
2020/12/21 12:56:13;;;;;;;5.77;3.43;;;10.60;99.90;;;;;;6181367;23;20153;-76
2020/12/21 12:58:40;;;;;;;6.60;3.10;;;10.50;99.90;;;;;;6154878;23;20169;-76